Aviation Digital Data Service (ADDS)

Output produced by METARs form (0347 UTC 17 August 2017)
found at http://www.aviationweather.gov/adds/metars/
 
KILG 170251Z 33003KT 10SM CLR 22/20 A3003 RMK AO2 SLP166 T02220200 51012
KILG 162328Z 1700/1724 32005KT P6SM FEW050 SCT250 
     FM170600 VRB04KT 6SM BR SCT250 
     FM171300 VRB03KT P6SM SCT070 BKN200 
     FM171600 15008KT P6SM BKN060